sensor_id;sensor_type;location;lat;lon;timestamp;P1;durP1;ratioP1;P2;durP2;ratioP2
6757;SDS011;3416;53.074;8.822;2023-04-01T00:00:24;19.05;;;13.70;;
6757;SDS011;3416;53.074;8.822;2023-04-01T00:02:51;22.23;;;12.98;;
6757;SDS011;3416;53.074;8.822;2023-04-01T00:05:19;16.15;;;11.00;;
6757;SDS011;3416;53.074;8.822;2023-04-01T00:07:47;16.08;;;11.85;;
6757;SDS011;3416;53.074;8.822;2023-04-01T00:10:14;20.80;;;12.68;;
6757;SDS011;3416;53.074;8.822;2023-04-01T00:12:41;19.33;;;14.25;;
6757;SDS011;3416;53.074;8.822;2023-04-01T00:15:09;22.83;;;11.85;;
6757;SDS011;3416;53.074;8.822;2023-04-01T00:17:37;15.25;;;12.98;;
6757;SDS011;3416;53.074;8.822;2023-04-01T00:20:05;21.27;;;14.73;;
6757;SDS011;3416;53.074;8.822;2023-04-01T00:22:34;21.92;;;12.73;;
6757;SDS011;3416;53.074;8.822;2023-04-01T00:25:03;16.13;;;12.63;;
6757;SDS011;3416;53.074;8.822;2023-04-01T00:27:30;21.20;;;13.73;;
6757;SDS011;3416;53.074;8.822;2023-04-01T00:29:57;23.15;;;14.70;;
6757;SDS011;3416;53.074;8.822;2023-04-01T00:32:24;20.73;;;14.05;;
6757;SDS011;3416;53.074;8.822;2023-04-01T00:34:51;18.77;;;13.10;;
6757;SDS011;3416;53.074;8.822;2023-04-01T00:37:18;29.10;;;14.18;;
6757;SDS011;3416;53.074;8.822;2023-04-01T00:39:46;15.40;;;11.98;;
6757;SDS011;3416;53.074;8.822;2023-04-01T00:42:14;21.45;;;14.43;;
6757;SDS011;3416;53.074;8.822;2023-04-01T00:44:42;20.88;;;14.05;;
6757;SDS011;3416;53.074;8.822;2023-04-01T00:47:09;18.13;;;12.65;;
6757;SDS011;3416;53.074;8.822;2023-04-01T00:49:37;16.70;;;12.20;;
6757;SDS011;3416;53.074;8.822;2023-04-01T00:52:06;16.13;;;11.75;;
6757;SDS011;3416;53.074;8.822;2023-04-01T00:54:34;20.13;;;13.57;;
6757;SDS011;3416;53.074;8.822;2023-04-01T00:57:04;17.02;;;11.73;;
6757;SDS011;3416;53.074;8.822;2023-04-01T00:59:36;20.35;;;15.02;;
6757;SDS011;3416;53.074;8.822;2023-04-01T01:02:08;18.17;;;13.98;;
6757;SDS011;3416;53.074;8.822;2023-04-01T01:04:38;23.92;;;14.95;;
6757;SDS011;3416;53.074;8.822;2023-04-01T01:07:08;23.55;;;15.63;;
6757;SDS011;3416;53.074;8.822;2023-04-01T01:09:45;23.13;;;17.35;;
6757;SDS011;3416;53.074;8.822;2023-04-01T01:12:22;19.60;;;12.75;;
6757;SDS011;3416;53.074;8.822;2023-04-01T01:14:58;16.92;;;13.52;;
6757;SDS011;3416;53.074;8.822;2023-04-01T01:17:32;19.13;;;13.20;;
6757;SDS011;3416;53.074;8.822;2023-04-01T01:20:14;20.25;;;15.18;;
6757;SDS011;3416;53.074;8.822;2023-04-01T01:26:09;16.42;;;10.27;;
6757;SDS011;3416;53.074;8.822;2023-04-01T01:29:08;17.27;;;12.57;;
6757;SDS011;3416;53.074;8.822;2023-04-01T01:31:47;15.45;;;13.48;;
6757;SDS011;3416;53.074;8.822;2023-04-01T01:34:24;15.43;;;12.00;;
6757;SDS011;3416;53.074;8.822;2023-04-01T01:36:59;20.25;;;12.80;;
6757;SDS011;3416;53.074;8.822;2023-04-01T01:39:30;19.13;;;13.70;;
6757;SDS011;3416;53.074;8.822;2023-04-01T01:42:00;15.20;;;12.15;;
6757;SDS011;3416;53.074;8.822;2023-04-01T01:44:29;14.90;;;12.05;;
6757;SDS011;3416;53.074;8.822;2023-04-01T01:46:57;17.80;;;13.20;;
6757;SDS011;3416;53.074;8.822;2023-04-01T01:49:26;16.08;;;11.88;;
6757;SDS011;3416;53.074;8.822;2023-04-01T01:51:55;15.80;;;13.57;;
6757;SDS011;3416;53.074;8.822;2023-04-01T01:54:24;16.63;;;12.82;;
6757;SDS011;3416;53.074;8.822;2023-04-01T01:56:51;14.52;;;12.68;;
6757;SDS011;3416;53.074;8.822;2023-04-01T01:59:22;16.80;;;12.25;;
6757;SDS011;3416;53.074;8.822;2023-04-01T02:01:52;18.33;;;12.85;;
6757;SDS011;3416;53.074;8.822;2023-04-01T02:04:22;15.98;;;12.45;;
6757;SDS011;3416;53.074;8.822;2023-04-01T02:06:50;16.00;;;13.57;;
6757;SDS011;3416;53.074;8.822;2023-04-01T02:09:19;16.35;;;13.13;;
6757;SDS011;3416;53.074;8.822;2023-04-01T02:11:48;18.17;;;12.45;;
6757;SDS011;3416;53.074;8.822;2023-04-01T02:14:18;15.27;;;12.88;;
6757;SDS011;3416;53.074;8.822;2023-04-01T02:16:49;19.20;;;14.38;;
6757;SDS011;3416;53.074;8.822;2023-04-01T02:19:21;18.13;;;13.73;;
6757;SDS011;3416;53.074;8.822;2023-04-01T02:21:51;17.45;;;13.93;;
6757;SDS011;3416;53.074;8.822;2023-04-01T02:24:21;16.58;;;13.15;;
6757;SDS011;3416;53.074;8.822;2023-04-01T02:26:53;19.80;;;13.30;;
6757;SDS011;3416;53.074;8.822;2023-04-01T02:29:20;17.80;;;12.80;;
6757;SDS011;3416;53.074;8.822;2023-04-01T02:31:50;13.77;;;12.38;;
6757;SDS011;3416;53.074;8.822;2023-04-01T02:34:17;20.35;;;15.05;;
6757;SDS011;3416;53.074;8.822;2023-04-01T02:36:45;17.73;;;13.00;;
6757;SDS011;3416;53.074;8.822;2023-04-01T02:39:13;19.63;;;14.13;;
6757;SDS011;3416;53.074;8.822;2023-04-01T02:41:40;17.25;;;13.52;;
6757;SDS011;3416;53.074;8.822;2023-04-01T02:44:09;12.88;;;11.13;;
6757;SDS011;3416;53.074;8.822;2023-04-01T02:46:37;17.63;;;13.30;;
6757;SDS011;3416;53.074;8.822;2023-04-01T02:49:04;17.05;;;14.25;;
6757;SDS011;3416;53.074;8.822;2023-04-01T02:51:31;16.35;;;13.77;;
6757;SDS011;3416;53.074;8.822;2023-04-01T02:53:58;18.35;;;13.10;;
6757;SDS011;3416;53.074;8.822;2023-04-01T02:56:25;24.00;;;12.80;;
6757;SDS011;3416;53.074;8.822;2023-04-01T02:58:52;19.30;;;13.80;;
6757;SDS011;3416;53.074;8.822;2023-04-01T03:01:20;15.10;;;12.73;;
6757;SDS011;3416;53.074;8.822;2023-04-01T03:03:47;16.30;;;12.70;;
6757;SDS011;3416;53.074;8.822;2023-04-01T03:06:15;18.02;;;12.80;;
6757;SDS011;3416;53.074;8.822;2023-04-01T03:08:43;14.18;;;11.43;;
6757;SDS011;3416;53.074;8.822;2023-04-01T03:11:10;14.45;;;11.65;;
6757;SDS011;3416;53.074;8.822;2023-04-01T03:13:38;15.68;;;13.07;;
6757;SDS011;3416;53.074;8.822;2023-04-01T03:16:05;14.05;;;11.70;;
6757;SDS011;3416;53.074;8.822;2023-04-01T03:18:33;13.23;;;11.45;;
6757;SDS011;3416;53.074;8.822;2023-04-01T03:21:11;17.83;;;11.25;;
6757;SDS011;3416;53.074;8.822;2023-04-01T03:23:39;17.05;;;10.85;;
6757;SDS011;3416;53.074;8.822;2023-04-01T03:26:06;14.07;;;11.43;;
6757;SDS011;3416;53.074;8.822;2023-04-01T03:28:33;14.75;;;12.23;;
6757;SDS011;3416;53.074;8.822;2023-04-01T03:31:00;11.77;;;10.57;;
6757;SDS011;3416;53.074;8.822;2023-04-01T03:33:27;13.85;;;12.00;;
6757;SDS011;3416;53.074;8.822;2023-04-01T03:35:55;16.13;;;10.57;;
6757;SDS011;3416;53.074;8.822;2023-04-01T03:38:22;12.68;;;9.20;;
6757;SDS011;3416;53.074;8.822;2023-04-01T03:40:49;10.70;;;9.32;;
6757;SDS011;3416;53.074;8.822;2023-04-01T03:43:16;14.90;;;10.65;;
6757;SDS011;3416;53.074;8.822;2023-04-01T03:45:43;14.50;;;10.32;;
6757;SDS011;3416;53.074;8.822;2023-04-01T03:48:10;12.73;;;9.65;;
6757;SDS011;3416;53.074;8.822;2023-04-01T03:50:37;12.43;;;9.27;;
6757;SDS011;3416;53.074;8.822;2023-04-01T03:53:05;9.60;;;8.32;;
6757;SDS011;3416;53.074;8.822;2023-04-01T03:55:32;14.73;;;9.50;;
6757;SDS011;3416;53.074;8.822;2023-04-01T03:57:59;14.18;;;9.43;;
6757;SDS011;3416;53.074;8.822;2023-04-01T04:00:27;10.02;;;9.00;;
6757;SDS011;3416;53.074;8.822;2023-04-01T04:02:54;11.70;;;8.77;;
6757;SDS011;3416;53.074;8.822;2023-04-01T04:05:21;11.15;;;8.90;;
6757;SDS011;3416;53.074;8.822;2023-04-01T04:07:48;9.80;;;8.75;;
6757;SDS011;3416;53.074;8.822;2023-04-01T04:10:17;11.48;;;8.20;;
6757;SDS011;3416;53.074;8.822;2023-04-01T04:12:44;10.80;;;9.70;;
6757;SDS011;3416;53.074;8.822;2023-04-01T04:15:11;10.75;;;8.27;;
6757;SDS011;3416;53.074;8.822;2023-04-01T04:17:38;10.90;;;8.20;;
6757;SDS011;3416;53.074;8.822;2023-04-01T04:20:05;13.30;;;9.85;;
6757;SDS011;3416;53.074;8.822;2023-04-01T04:22:33;13.02;;;9.57;;
6757;SDS011;3416;53.074;8.822;2023-04-01T04:25:00;9.32;;;8.10;;
6757;SDS011;3416;53.074;8.822;2023-04-01T04:27:28;13.65;;;9.55;;
6757;SDS011;3416;53.074;8.822;2023-04-01T04:29:55;13.02;;;10.00;;
6757;SDS011;3416;53.074;8.822;2023-04-01T04:32:22;9.30;;;8.25;;
6757;SDS011;3416;53.074;8.822;2023-04-01T04:34:49;13.02;;;9.02;;
6757;SDS011;3416;53.074;8.822;2023-04-01T04:37:16;11.85;;;8.73;;
6757;SDS011;3416;53.074;8.822;2023-04-01T04:39:43;9.77;;;8.50;;
6757;SDS011;3416;53.074;8.822;2023-04-01T04:42:10;13.63;;;8.65;;
6757;SDS011;3416;53.074;8.822;2023-04-01T04:44:38;10.15;;;8.27;;
6757;SDS011;3416;53.074;8.822;2023-04-01T04:47:05;10.23;;;8.05;;
6757;SDS011;3416;53.074;8.822;2023-04-01T04:49:32;9.25;;;8.10;;
6757;SDS011;3416;53.074;8.822;2023-04-01T04:51:59;10.20;;;8.05;;
6757;SDS011;3416;53.074;8.822;2023-04-01T04:54:25;11.20;;;8.70;;
6757;SDS011;3416;53.074;8.822;2023-04-01T04:56:52;14.27;;;10.43;;
6757;SDS011;3416;53.074;8.822;2023-04-01T04:59:19;10.85;;;7.78;;
6757;SDS011;3416;53.074;8.822;2023-04-01T05:01:47;9.68;;;7.45;;
6757;SDS011;3416;53.074;8.822;2023-04-01T05:04:14;9.02;;;7.05;;
6757;SDS011;3416;53.074;8.822;2023-04-01T05:06:42;9.20;;;7.18;;
6757;SDS011;3416;53.074;8.822;2023-04-01T05:09:09;10.00;;;8.00;;
6757;SDS011;3416;53.074;8.822;2023-04-01T05:11:36;14.15;;;8.60;;
6757;SDS011;3416;53.074;8.822;2023-04-01T05:14:03;10.65;;;7.90;;
6757;SDS011;3416;53.074;8.822;2023-04-01T05:16:30;11.52;;;7.80;;
6757;SDS011;3416;53.074;8.822;2023-04-01T05:18:58;8.43;;;7.13;;
6757;SDS011;3416;53.074;8.822;2023-04-01T05:21:25;7.65;;;6.43;;
6757;SDS011;3416;53.074;8.822;2023-04-01T05:23:52;9.27;;;8.07;;
6757;SDS011;3416;53.074;8.822;2023-04-01T05:26:19;11.45;;;6.40;;
6757;SDS011;3416;53.074;8.822;2023-04-01T05:28:46;7.85;;;6.13;;
6757;SDS011;3416;53.074;8.822;2023-04-01T05:31:12;9.18;;;6.65;;
6757;SDS011;3416;53.074;8.822;2023-04-01T05:33:39;10.50;;;7.60;;
6757;SDS011;3416;53.074;8.822;2023-04-01T05:36:08;8.35;;;5.93;;
6757;SDS011;3416;53.074;8.822;2023-04-01T05:38:37;6.03;;;5.43;;
6757;SDS011;3416;53.074;8.822;2023-04-01T05:41:04;6.85;;;5.57;;
6757;SDS011;3416;53.074;8.822;2023-04-01T05:43:30;8.20;;;6.40;;
6757;SDS011;3416;53.074;8.822;2023-04-01T05:45:57;6.95;;;5.90;;
6757;SDS011;3416;53.074;8.822;2023-04-01T05:48:24;7.40;;;5.57;;
6757;SDS011;3416;53.074;8.822;2023-04-01T05:50:51;6.93;;;5.88;;
6757;SDS011;3416;53.074;8.822;2023-04-01T05:53:19;9.70;;;6.25;;
6757;SDS011;3416;53.074;8.822;2023-04-01T05:55:47;8.40;;;5.90;;
6757;SDS011;3416;53.074;8.822;2023-04-01T05:58:14;8.73;;;5.13;;
6757;SDS011;3416;53.074;8.822;2023-04-01T06:00:40;6.10;;;5.50;;
6757;SDS011;3416;53.074;8.822;2023-04-01T06:03:07;6.55;;;5.68;;
6757;SDS011;3416;53.074;8.822;2023-04-01T06:05:37;6.43;;;5.38;;
6757;SDS011;3416;53.074;8.822;2023-04-01T06:08:09;8.70;;;6.63;;
6757;SDS011;3416;53.074;8.822;2023-04-01T06:10:40;6.05;;;5.43;;
6757;SDS011;3416;53.074;8.822;2023-04-01T06:13:18;8.52;;;5.90;;
6757;SDS011;3416;53.074;8.822;2023-04-01T06:15:53;9.10;;;5.45;;
6757;SDS011;3416;53.074;8.822;2023-04-01T06:21:30;5.90;;;5.35;;
6757;SDS011;3416;53.074;8.822;2023-04-01T06:24:22;6.55;;;5.20;;
6757;SDS011;3416;53.074;8.822;2023-04-01T06:27:16;7.32;;;6.00;;
6757;SDS011;3416;53.074;8.822;2023-04-01T06:29:53;5.70;;;5.20;;
6757;SDS011;3416;53.074;8.822;2023-04-01T06:32:32;6.07;;;5.47;;
6757;SDS011;3416;53.074;8.822;2023-04-01T06:35:26;5.03;;;4.28;;
6757;SDS011;3416;53.074;8.822;2023-04-01T06:38:10;4.97;;;4.47;;
6757;SDS011;3416;53.074;8.822;2023-04-01T06:44:13;6.13;;;5.03;;
6757;SDS011;3416;53.074;8.822;2023-04-01T06:46:44;5.75;;;5.07;;
6757;SDS011;3416;53.074;8.822;2023-04-01T06:52:10;4.85;;;4.35;;
6757;SDS011;3416;53.074;8.822;2023-04-01T06:54:42;4.43;;;3.75;;
6757;SDS011;3416;53.074;8.822;2023-04-01T06:57:18;5.70;;;3.78;;
6757;SDS011;3416;53.074;8.822;2023-04-01T06:59:51;8.25;;;4.80;;
6757;SDS011;3416;53.074;8.822;2023-04-01T07:02:22;5.90;;;4.40;;
6757;SDS011;3416;53.074;8.822;2023-04-01T07:04:55;4.95;;;3.80;;
6757;SDS011;3416;53.074;8.822;2023-04-01T07:07:28;4.93;;;3.78;;
6757;SDS011;3416;53.074;8.822;2023-04-01T07:10:02;4.95;;;3.35;;
6757;SDS011;3416;53.074;8.822;2023-04-01T07:12:35;4.43;;;3.70;;
6757;SDS011;3416;53.074;8.822;2023-04-01T07:15:15;3.72;;;3.42;;
6757;SDS011;3416;53.074;8.822;2023-04-01T07:17:45;4.55;;;3.67;;
6757;SDS011;3416;53.074;8.822;2023-04-01T07:20:18;8.65;;;4.10;;
6757;SDS011;3416;53.074;8.822;2023-04-01T07:22:49;4.57;;;3.67;;
6757;SDS011;3416;53.074;8.822;2023-04-01T07:25:18;3.58;;;3.28;;
6757;SDS011;3416;53.074;8.822;2023-04-01T07:27:50;4.20;;;3.80;;
6757;SDS011;3416;53.074;8.822;2023-04-01T07:30:21;4.00;;;3.70;;
6757;SDS011;3416;53.074;8.822;2023-04-01T07:32:51;5.35;;;3.75;;
6757;SDS011;3416;53.074;8.822;2023-04-01T07:35:26;4.00;;;3.50;;
6757;SDS011;3416;53.074;8.822;2023-04-01T07:38:03;6.28;;;4.30;;
6757;SDS011;3416;53.074;8.822;2023-04-01T07:40:39;3.88;;;3.58;;
6757;SDS011;3416;53.074;8.822;2023-04-01T07:43:30;3.70;;;3.40;;
6757;SDS011;3416;53.074;8.822;2023-04-01T07:46:10;4.22;;;3.83;;
6757;SDS011;3416;53.074;8.822;2023-04-01T07:48:51;2.92;;;2.72;;
6757;SDS011;3416;53.074;8.822;2023-04-01T07:51:23;3.95;;;3.55;;
6757;SDS011;3416;53.074;8.822;2023-04-01T07:53:57;3.67;;;2.88;;
6757;SDS011;3416;53.074;8.822;2023-04-01T07:56:31;3.88;;;3.45;;
6757;SDS011;3416;53.074;8.822;2023-04-01T07:59:02;6.80;;;3.55;;
6757;SDS011;3416;53.074;8.822;2023-04-01T08:01:37;3.28;;;2.95;;
6757;SDS011;3416;53.074;8.822;2023-04-01T08:04:16;3.50;;;3.20;;
6757;SDS011;3416;53.074;8.822;2023-04-01T08:06:52;6.60;;;3.38;;
6757;SDS011;3416;53.074;8.822;2023-04-01T08:09:31;3.58;;;3.28;;
6757;SDS011;3416;53.074;8.822;2023-04-01T08:12:10;4.10;;;2.80;;
6757;SDS011;3416;53.074;8.822;2023-04-01T08:14:52;3.00;;;2.80;;
6757;SDS011;3416;53.074;8.822;2023-04-01T08:17:31;2.95;;;2.40;;
6757;SDS011;3416;53.074;8.822;2023-04-01T08:20:14;4.40;;;2.80;;
6757;SDS011;3416;53.074;8.822;2023-04-01T08:22:53;2.85;;;2.45;;
6757;SDS011;3416;53.074;8.822;2023-04-01T08:25:27;4.25;;;2.72;;
6757;SDS011;3416;53.074;8.822;2023-04-01T08:27:56;2.58;;;2.38;;
6757;SDS011;3416;53.074;8.822;2023-04-01T08:30:27;2.80;;;2.40;;
6757;SDS011;3416;53.074;8.822;2023-04-01T08:33:09;5.43;;;2.53;;
6757;SDS011;3416;53.074;8.822;2023-04-01T08:35:41;4.60;;;3.05;;
6757;SDS011;3416;53.074;8.822;2023-04-01T08:38:13;2.33;;;2.05;;
6757;SDS011;3416;53.074;8.822;2023-04-01T08:40:55;5.40;;;2.40;;
6757;SDS011;3416;53.074;8.822;2023-04-01T08:43:35;2.53;;;1.98;;
6757;SDS011;3416;53.074;8.822;2023-04-01T08:46:28;1.92;;;1.83;;
6757;SDS011;3416;53.074;8.822;2023-04-01T08:49:19;2.28;;;1.90;;
6757;SDS011;3416;53.074;8.822;2023-04-01T08:52:17;3.58;;;2.08;;
6757;SDS011;3416;53.074;8.822;2023-04-01T08:55:01;2.67;;;1.80;;
6757;SDS011;3416;53.074;8.822;2023-04-01T08:57:45;3.55;;;2.40;;
6757;SDS011;3416;53.074;8.822;2023-04-01T09:00:24;3.40;;;2.17;;
6757;SDS011;3416;53.074;8.822;2023-04-01T09:03:05;4.35;;;2.38;;
6757;SDS011;3416;53.074;8.822;2023-04-01T09:05:57;4.30;;;3.03;;
6757;SDS011;3416;53.074;8.822;2023-04-01T09:08:56;2.97;;;1.92;;
6757;SDS011;3416;53.074;8.822;2023-04-01T09:11:56;1.92;;;1.70;;
6757;SDS011;3416;53.074;8.822;2023-04-01T09:15:01;3.67;;;2.95;;
6757;SDS011;3416;53.074;8.822;2023-04-01T09:18:00;2.35;;;1.85;;
6757;SDS011;3416;53.074;8.822;2023-04-01T09:20:45;1.83;;;1.73;;
6757;SDS011;3416;53.074;8.822;2023-04-01T09:26:25;2.90;;;1.70;;
6757;SDS011;3416;53.074;8.822;2023-04-01T09:29:02;4.82;;;1.98;;
6757;SDS011;3416;53.074;8.822;2023-04-01T09:31:48;3.90;;;1.98;;
6757;SDS011;3416;53.074;8.822;2023-04-01T09:34:30;3.33;;;2.80;;
6757;SDS011;3416;53.074;8.822;2023-04-01T09:37:19;1.67;;;1.27;;
6757;SDS011;3416;53.074;8.822;2023-04-01T09:40:00;2.97;;;2.67;;
6757;SDS011;3416;53.074;8.822;2023-04-01T09:42:41;1.75;;;1.65;;
6757;SDS011;3416;53.074;8.822;2023-04-01T09:45:14;2.08;;;1.60;;
6757;SDS011;3416;53.074;8.822;2023-04-01T09:47:53;3.47;;;1.77;;
6757;SDS011;3416;53.074;8.822;2023-04-01T09:50:30;1.90;;;1.80;;
6757;SDS011;3416;53.074;8.822;2023-04-01T09:53:06;2.28;;;1.35;;
6757;SDS011;3416;53.074;8.822;2023-04-01T10:07:52;1.40;;;1.30;;
6757;SDS011;3416;53.074;8.822;2023-04-01T10:10:42;2.30;;;1.92;;
6757;SDS011;3416;53.074;8.822;2023-04-01T10:13:49;2.03;;;1.42;;
6757;SDS011;3416;53.074;8.822;2023-04-01T10:16:44;2.75;;;1.55;;
6757;SDS011;3416;53.074;8.822;2023-04-01T10:19:44;1.20;;;1.10;;
6757;SDS011;3416;53.074;8.822;2023-04-01T10:22:31;3.58;;;0.90;;
6757;SDS011;3416;53.074;8.822;2023-04-01T10:25:26;0.75;;;0.60;;
6757;SDS011;3416;53.074;8.822;2023-04-01T10:34:34;7.72;;;4.38;;
6757;SDS011;3416;53.074;8.822;2023-04-01T10:37:28;1.27;;;0.60;;
6757;SDS011;3416;53.074;8.822;2023-04-01T10:40:23;0.80;;;0.70;;
6757;SDS011;3416;53.074;8.822;2023-04-01T10:49:25;1.25;;;0.88;;
6757;SDS011;3416;53.074;8.822;2023-04-01T10:55:37;1.35;;;0.88;;
6757;SDS011;3416;53.074;8.822;2023-04-01T10:58:51;0.73;;;0.60;;
6757;SDS011;3416;53.074;8.822;2023-04-01T11:08:09;0.90;;;0.65;;
6757;SDS011;3416;53.074;8.822;2023-04-01T11:14:17;4.30;;;0.80;;
6757;SDS011;3416;53.074;8.822;2023-04-01T11:17:15;1.55;;;0.90;;
6757;SDS011;3416;53.074;8.822;2023-04-01T11:23:31;0.90;;;0.70;;
6757;SDS011;3416;53.074;8.822;2023-04-01T11:26:15;1.40;;;1.00;;
6757;SDS011;3416;53.074;8.822;2023-04-01T11:29:00;1.42;;;0.90;;
6757;SDS011;3416;53.074;8.822;2023-04-01T11:31:39;1.05;;;0.90;;
6757;SDS011;3416;53.074;8.822;2023-04-01T11:34:16;0.80;;;0.80;;
6757;SDS011;3416;53.074;8.822;2023-04-01T11:36:57;1.15;;;1.05;;
6757;SDS011;3416;53.074;8.822;2023-04-01T11:39:37;1.10;;;1.00;;
6757;SDS011;3416;53.074;8.822;2023-04-01T11:42:12;2.13;;;1.00;;
6757;SDS011;3416;53.074;8.822;2023-04-01T11:44:49;1.00;;;0.90;;
6757;SDS011;3416;53.074;8.822;2023-04-01T11:47:28;0.95;;;0.85;;
6757;SDS011;3416;53.074;8.822;2023-04-01T11:50:13;1.00;;;0.80;;
6757;SDS011;3416;53.074;8.822;2023-04-01T11:52:53;1.05;;;0.95;;
6757;SDS011;3416;53.074;8.822;2023-04-01T11:55:50;1.38;;;1.20;;
6757;SDS011;3416;53.074;8.822;2023-04-01T11:58:37;2.95;;;1.20;;
6757;SDS011;3416;53.074;8.822;2023-04-01T12:01:25;1.38;;;1.17;;
6757;SDS011;3416;53.074;8.822;2023-04-01T12:04:05;1.55;;;1.15;;
6757;SDS011;3416;53.074;8.822;2023-04-01T12:07:06;1.40;;;1.17;;
6757;SDS011;3416;53.074;8.822;2023-04-01T12:09:48;1.60;;;1.50;;
6757;SDS011;3416;53.074;8.822;2023-04-01T12:12:27;1.20;;;1.10;;
6757;SDS011;3416;53.074;8.822;2023-04-01T12:15:05;2.05;;;1.10;;
6757;SDS011;3416;53.074;8.822;2023-04-01T12:17:45;1.00;;;0.85;;
6757;SDS011;3416;53.074;8.822;2023-04-01T12:20:22;2.60;;;1.40;;
6757;SDS011;3416;53.074;8.822;2023-04-01T12:23:03;1.42;;;1.33;;
6757;SDS011;3416;53.074;8.822;2023-04-01T12:25:45;1.35;;;1.17;;
6757;SDS011;3416;53.074;8.822;2023-04-01T12:28:39;1.50;;;1.30;;
6757;SDS011;3416;53.074;8.822;2023-04-01T12:31:25;1.35;;;1.20;;
6757;SDS011;3416;53.074;8.822;2023-04-01T12:34:18;1.80;;;1.13;;
6757;SDS011;3416;53.074;8.822;2023-04-01T12:37:07;1.65;;;1.10;;
6757;SDS011;3416;53.074;8.822;2023-04-01T12:39:44;2.65;;;1.30;;
6757;SDS011;3416;53.074;8.822;2023-04-01T12:42:28;1.30;;;1.20;;
6757;SDS011;3416;53.074;8.822;2023-04-01T12:45:27;3.78;;;1.40;;
6757;SDS011;3416;53.074;8.822;2023-04-01T12:50:57;2.13;;;1.30;;
6757;SDS011;3416;53.074;8.822;2023-04-01T12:53:55;1.15;;;1.05;;
6757;SDS011;3416;53.074;8.822;2023-04-01T12:56:59;1.10;;;1.00;;
6757;SDS011;3416;53.074;8.822;2023-04-01T12:59:54;1.10;;;0.80;;
6757;SDS011;3416;53.074;8.822;2023-04-01T13:02:41;2.35;;;0.98;;
6757;SDS011;3416;53.074;8.822;2023-04-01T13:05:31;1.00;;;0.82;;
6757;SDS011;3416;53.074;8.822;2023-04-01T13:08:35;0.98;;;0.88;;
6757;SDS011;3416;53.074;8.822;2023-04-01T13:11:12;1.60;;;1.05;;
6757;SDS011;3416;53.074;8.822;2023-04-01T13:16:52;3.90;;;1.52;;
6757;SDS011;3416;53.074;8.822;2023-04-01T13:19:25;1.30;;;1.10;;
6757;SDS011;3416;53.074;8.822;2023-04-01T13:22:00;1.25;;;0.98;;
6757;SDS011;3416;53.074;8.822;2023-04-01T13:24:40;0.98;;;0.80;;
6757;SDS011;3416;53.074;8.822;2023-04-01T13:27:14;1.38;;;0.85;;
6757;SDS011;3416;53.074;8.822;2023-04-01T13:29:51;1.10;;;0.70;;
6757;SDS011;3416;53.074;8.822;2023-04-01T13:32:31;0.95;;;0.70;;
6757;SDS011;3416;53.074;8.822;2023-04-01T13:35:16;1.42;;;0.98;;
6757;SDS011;3416;53.074;8.822;2023-04-01T13:37:59;0.95;;;0.80;;
6757;SDS011;3416;53.074;8.822;2023-04-01T13:40:42;1.10;;;0.88;;
6757;SDS011;3416;53.074;8.822;2023-04-01T13:43:18;1.08;;;0.95;;
6757;SDS011;3416;53.074;8.822;2023-04-01T13:49:25;1.00;;;0.80;;
6757;SDS011;3416;53.074;8.822;2023-04-01T13:52:29;1.25;;;0.93;;
6757;SDS011;3416;53.074;8.822;2023-04-01T14:01:46;1.33;;;0.90;;
6757;SDS011;3416;53.074;8.822;2023-04-01T14:07:18;1.35;;;1.02;;
6757;SDS011;3416;53.074;8.822;2023-04-01T14:10:05;1.23;;;1.13;;
6757;SDS011;3416;53.074;8.822;2023-04-01T14:12:58;1.80;;;1.10;;
6757;SDS011;3416;53.074;8.822;2023-04-01T14:15:39;2.00;;;1.20;;
6757;SDS011;3416;53.074;8.822;2023-04-01T14:25:06;3.28;;;1.90;;
6757;SDS011;3416;53.074;8.822;2023-04-01T14:28:10;1.25;;;1.13;;
6757;SDS011;3416;53.074;8.822;2023-04-01T14:30:51;1.30;;;1.10;;
6757;SDS011;3416;53.074;8.822;2023-04-01T14:33:33;1.48;;;1.38;;
6757;SDS011;3416;53.074;8.822;2023-04-01T14:36:18;2.95;;;1.70;;
6757;SDS011;3416;53.074;8.822;2023-04-01T14:39:01;3.15;;;1.73;;
6757;SDS011;3416;53.074;8.822;2023-04-01T14:41:54;2.00;;;1.42;;
6757;SDS011;3416;53.074;8.822;2023-04-01T14:44:42;2.85;;;1.60;;
6757;SDS011;3416;53.074;8.822;2023-04-01T14:47:44;2.33;;;1.67;;
6757;SDS011;3416;53.074;8.822;2023-04-01T14:50:20;3.40;;;2.47;;
6757;SDS011;3416;53.074;8.822;2023-04-01T14:52:55;2.72;;;2.30;;
6757;SDS011;3416;53.074;8.822;2023-04-01T14:55:27;2.95;;;1.92;;
6757;SDS011;3416;53.074;8.822;2023-04-01T14:58:04;2.70;;;2.30;;
6757;SDS011;3416;53.074;8.822;2023-04-01T15:00:52;4.13;;;2.60;;
6757;SDS011;3416;53.074;8.822;2023-04-01T15:03:27;2.95;;;2.75;;
6757;SDS011;3416;53.074;8.822;2023-04-01T15:06:05;6.05;;;2.80;;
6757;SDS011;3416;53.074;8.822;2023-04-01T15:08:52;3.20;;;2.90;;
6757;SDS011;3416;53.074;8.822;2023-04-01T15:11:32;3.25;;;2.63;;
6757;SDS011;3416;53.074;8.822;2023-04-01T15:14:14;3.60;;;2.90;;
6757;SDS011;3416;53.074;8.822;2023-04-01T15:16:55;4.45;;;4.05;;
6757;SDS011;3416;53.074;8.822;2023-04-01T15:19:38;2.95;;;2.50;;
6757;SDS011;3416;53.074;8.822;2023-04-01T15:22:25;4.18;;;3.00;;
6757;SDS011;3416;53.074;8.822;2023-04-01T15:25:15;4.68;;;2.83;;
6757;SDS011;3416;53.074;8.822;2023-04-01T15:27:55;3.92;;;3.10;;
6757;SDS011;3416;53.074;8.822;2023-04-01T15:30:34;4.38;;;3.60;;
6757;SDS011;3416;53.074;8.822;2023-04-01T15:33:17;3.95;;;3.38;;
6757;SDS011;3416;53.074;8.822;2023-04-01T15:36:00;3.50;;;3.20;;
6757;SDS011;3416;53.074;8.822;2023-04-01T15:38:35;5.45;;;3.20;;
6757;SDS011;3416;53.074;8.822;2023-04-01T15:41:08;4.15;;;3.10;;
6757;SDS011;3416;53.074;8.822;2023-04-01T15:43:41;4.20;;;2.95;;
6757;SDS011;3416;53.074;8.822;2023-04-01T15:49:22;4.25;;;2.75;;
6757;SDS011;3416;53.074;8.822;2023-04-01T15:52:02;3.83;;;2.30;;
6757;SDS011;3416;53.074;8.822;2023-04-01T15:57:28;2.83;;;2.53;;
6757;SDS011;3416;53.074;8.822;2023-04-01T16:00:11;3.67;;;3.38;;
6757;SDS011;3416;53.074;8.822;2023-04-01T16:08:57;3.92;;;2.70;;
6757;SDS011;3416;53.074;8.822;2023-04-01T16:11:35;3.65;;;2.70;;
6757;SDS011;3416;53.074;8.822;2023-04-01T16:14:12;2.60;;;2.08;;
6757;SDS011;3416;53.074;8.822;2023-04-01T16:16:51;4.38;;;2.85;;
6757;SDS011;3416;53.074;8.822;2023-04-01T16:22:16;2.72;;;2.40;;
6757;SDS011;3416;53.074;8.822;2023-04-01T16:24:49;5.18;;;3.50;;
6757;SDS011;3416;53.074;8.822;2023-04-01T16:27:24;4.85;;;3.00;;
6757;SDS011;3416;53.074;8.822;2023-04-01T16:30:00;4.03;;;2.90;;
6757;SDS011;3416;53.074;8.822;2023-04-01T16:32:45;3.33;;;2.97;;
6757;SDS011;3416;53.074;8.822;2023-04-01T16:35:28;3.75;;;2.65;;
6757;SDS011;3416;53.074;8.822;2023-04-01T16:38:05;4.20;;;2.30;;
6757;SDS011;3416;53.074;8.822;2023-04-01T16:40:44;2.58;;;2.22;;
6757;SDS011;3416;53.074;8.822;2023-04-01T16:43:21;7.03;;;4.40;;
6757;SDS011;3416;53.074;8.822;2023-04-01T16:45:57;4.68;;;2.67;;
6757;SDS011;3416;53.074;8.822;2023-04-01T16:48:45;6.03;;;4.10;;
6757;SDS011;3416;53.074;8.822;2023-04-01T16:51:25;4.47;;;3.55;;
6757;SDS011;3416;53.074;8.822;2023-04-01T16:54:01;3.92;;;3.10;;
6757;SDS011;3416;53.074;8.822;2023-04-01T16:56:36;3.75;;;3.20;;
6757;SDS011;3416;53.074;8.822;2023-04-01T16:59:07;3.70;;;3.05;;
6757;SDS011;3416;53.074;8.822;2023-04-01T17:01:48;4.70;;;3.25;;
6757;SDS011;3416;53.074;8.822;2023-04-01T17:04:20;3.92;;;2.75;;
6757;SDS011;3416;53.074;8.822;2023-04-01T17:06:59;3.28;;;2.97;;
6757;SDS011;3416;53.074;8.822;2023-04-01T17:09:41;6.07;;;2.80;;
6757;SDS011;3416;53.074;8.822;2023-04-01T17:12:28;5.70;;;3.35;;
6757;SDS011;3416;53.074;8.822;2023-04-01T17:15:03;6.15;;;3.17;;
6757;SDS011;3416;53.074;8.822;2023-04-01T17:17:44;4.28;;;3.65;;
6757;SDS011;3416;53.074;8.822;2023-04-01T17:20:35;4.10;;;3.40;;
6757;SDS011;3416;53.074;8.822;2023-04-01T17:23:12;5.40;;;3.88;;
6757;SDS011;3416;53.074;8.822;2023-04-01T17:25:51;7.63;;;5.05;;
6757;SDS011;3416;53.074;8.822;2023-04-01T17:28:45;5.70;;;3.65;;
6757;SDS011;3416;53.074;8.822;2023-04-01T17:31:32;6.32;;;4.70;;
6757;SDS011;3416;53.074;8.822;2023-04-01T17:34:29;4.82;;;4.00;;
6757;SDS011;3416;53.074;8.822;2023-04-01T17:37:06;5.20;;;4.18;;
6757;SDS011;3416;53.074;8.822;2023-04-01T17:39:55;3.58;;;3.28;;
6757;SDS011;3416;53.074;8.822;2023-04-01T17:42:34;10.50;;;4.55;;